Terminal Aerodrome Forecast
Issued by NWS

Home | Current Version | Previous Version | Text Only | Print | Product List | Glossary On
Versions: 1 2 3 4 5 6 7 8 9 10 11 12 13 14 15 16 17 18
000
FTUS43 KDLH 251139
TAFBRD
TAF
KBRD 251139Z 2512/2612 16009KT P6SM FEW011 BKN090
     FM251300 17007KT P6SM VCSH BKN035
     FM251600 17009KT P6SM BKN015
     FM252000 18006KT P6SM BKN050
     FM260000 18005KT P6SM VCTS BKN050CB
     FM260600 25006KT P6SM BKN100
     FM260800 28006KT P6SM BKN090=

USA.gov is the U.S. government's official web portal to all federal, state and local government web resources and services.